createdAt,value
2023-01-21T00:00:35.197Z,0
2023-01-21T00:01:35.215Z,0
2023-01-21T00:02:35.374Z,0
2023-01-21T00:03:35.018Z,0
2023-01-21T00:04:34.937Z,0
2023-01-21T00:05:34.965Z,0
2023-01-21T00:06:35.229Z,0
2023-01-21T00:07:35.259Z,0
2023-01-21T00:08:34.771Z,0
2023-01-21T00:09:35.058Z,0
2023-01-21T00:10:34.818Z,0
2023-01-21T00:11:35.298Z,0
2023-01-21T00:12:35.319Z,0
2023-01-21T00:13:35.119Z,0
2023-01-21T00:14:35.123Z,0
2023-01-21T00:15:35.075Z,0
2023-01-21T00:16:35.206Z,0
2023-01-21T00:17:34.863Z,0
2023-01-21T00:18:37.425Z,0
2023-01-21T00:19:35.414Z,0
2023-01-21T00:20:35.170Z,0
2023-01-21T00:21:34.961Z,0
2023-01-21T00:22:35.478Z,0
2023-01-21T00:23:34.956Z,0
2023-01-21T00:24:35.494Z,0
2023-01-21T00:25:35.240Z,0
2023-01-21T00:26:35.518Z,0
2023-01-21T00:27:35.266Z,0
2023-01-21T00:28:35.552Z,0
2023-01-21T00:29:35.565Z,0
2023-01-21T00:30:35.206Z,0
2023-01-21T00:31:36.128Z,0
2023-01-21T00:32:35.688Z,0
2023-01-21T00:33:35.684Z,0
2023-01-21T00:34:35.388Z,0
2023-01-21T00:35:35.377Z,0
2023-01-21T00:36:35.403Z,0
2023-01-21T00:37:35.426Z,0
2023-01-21T00:38:35.691Z,0
2023-01-21T00:39:35.462Z,0
2023-01-21T00:40:35.471Z,0
2023-01-21T00:41:35.472Z,0
2023-01-21T00:42:35.487Z,0
2023-01-21T00:43:35.506Z,0
2023-01-21T00:44:35.799Z,0
2023-01-21T00:45:35.779Z,0
2023-01-21T00:46:35.861Z,0
2023-01-21T00:47:35.304Z,0
2023-01-21T00:48:35.936Z,0
2023-01-21T00:49:35.350Z,0
2023-01-21T00:50:35.590Z,0
2023-01-21T00:51:35.361Z,0
2023-01-21T00:52:35.894Z,0
2023-01-21T00:53:36.393Z,0
2023-01-21T00:54:35.642Z,0
2023-01-21T00:55:36.129Z,0
2023-01-21T00:56:36.486Z,0
2023-01-21T00:57:36.311Z,0
2023-01-21T00:58:36.496Z,0
2023-01-21T00:59:35.707Z,0
2023-01-21T01:00:36.014Z,0
2023-01-21T01:01:35.716Z,0
2023-01-21T01:02:36.218Z,0
2023-01-21T01:03:36.069Z,0
2023-01-21T01:04:36.109Z,0
2023-01-21T01:05:35.864Z,0
2023-01-21T01:06:36.109Z,0
2023-01-21T01:07:36.119Z,0
2023-01-21T01:08:36.125Z,0
2023-01-21T01:09:36.150Z,0
2023-01-21T01:10:35.901Z,0
2023-01-21T01:11:36.172Z,0
2023-01-21T01:12:35.926Z,0
2023-01-21T01:13:35.941Z,0
2023-01-21T01:14:36.205Z,0
2023-01-21T01:15:36.336Z,0
2023-01-21T01:16:36.245Z,0
2023-01-21T01:17:36.014Z,0
2023-01-21T01:18:36.335Z,0
2023-01-21T01:19:36.057Z,0
2023-01-21T01:20:36.321Z,0
2023-01-21T01:21:36.300Z,0
2023-01-21T01:22:36.051Z,0
2023-01-21T01:23:36.385Z,0
2023-01-21T01:24:36.085Z,0
2023-01-21T01:25:36.122Z,0
2023-01-21T01:26:36.407Z,0
2023-01-21T01:27:36.115Z,0
2023-01-21T01:28:36.418Z,0
2023-01-21T01:29:36.399Z,0
2023-01-21T01:30:36.842Z,0
2023-01-21T01:31:36.664Z,0
2023-01-21T01:32:36.468Z,0
2023-01-21T01:33:35.930Z,0
2023-01-21T01:34:36.495Z,0
2023-01-21T01:35:36.491Z,0
2023-01-21T01:36:36.545Z,0
2023-01-21T01:37:36.534Z,0
2023-01-21T01:38:36.519Z,0
2023-01-21T01:39:36.555Z,0
2023-01-21T01:40:36.307Z,0
2023-01-21T01:41:36.631Z,0
2023-01-21T01:42:36.376Z,0
2023-01-21T01:43:36.598Z,0
2023-01-21T01:44:36.632Z,0
2023-01-21T01:45:36.961Z,0
2023-01-21T01:46:37.086Z,0
2023-01-21T01:47:36.652Z,0
2023-01-21T01:48:36.159Z,0
2023-01-21T01:49:36.683Z,0
2023-01-21T01:50:36.910Z,0
2023-01-21T01:51:36.475Z,0
2023-01-21T01:52:36.806Z,0
2023-01-21T01:53:36.700Z,0
2023-01-21T01:54:36.793Z,0
2023-01-21T01:55:36.530Z,0
2023-01-21T01:56:36.527Z,0
2023-01-21T01:57:36.911Z,0
2023-01-21T01:58:36.811Z,0
2023-01-21T01:59:36.585Z,0
2023-01-21T02:00:36.575Z,0
2023-01-21T02:01:37.000Z,0
2023-01-21T02:02:37.007Z,0
2023-01-21T02:03:36.917Z,0
2023-01-21T02:04:36.403Z,0
2023-01-21T02:05:36.646Z,0
2023-01-21T02:06:36.967Z,0
2023-01-21T02:07:37.005Z,0
2023-01-21T02:08:36.864Z,0
2023-01-21T02:09:37.010Z,0
2023-01-21T02:10:36.983Z,0
2023-01-21T02:11:36.759Z,0
2023-01-21T02:12:37.029Z,0
2023-01-21T02:13:36.816Z,0
2023-01-21T02:14:37.041Z,0
2023-01-21T02:15:37.079Z,0
2023-01-21T02:16:36.999Z,0
2023-01-21T02:17:37.079Z,0
2023-01-21T02:18:37.094Z,0
2023-01-21T02:19:36.840Z,0
2023-01-21T02:20:37.107Z,0
2023-01-21T02:21:37.128Z,0
2023-01-21T02:22:37.203Z,0
2023-01-21T02:23:36.898Z,0
2023-01-21T02:24:37.231Z,0
2023-01-21T02:25:37.240Z,0
2023-01-21T02:26:37.209Z,0
2023-01-21T02:27:38.385Z,0
2023-01-21T02:28:37.011Z,0
2023-01-21T02:29:37.265Z,0
2023-01-21T02:30:37.051Z,0
2023-01-21T02:31:37.369Z,0
2023-01-21T02:32:37.041Z,0
2023-01-21T02:33:37.316Z,0
2023-01-21T02:34:37.344Z,0
2023-01-21T02:35:36.816Z,0
2023-01-21T02:36:37.352Z,0
2023-01-21T02:37:37.355Z,0
2023-01-21T02:38:37.163Z,0
2023-01-21T02:39:37.387Z,0
2023-01-21T02:40:37.460Z,0
2023-01-21T02:41:37.147Z,0
2023-01-21T02:42:37.435Z,0
2023-01-21T02:43:37.195Z,0
2023-01-21T02:44:36.987Z,0
2023-01-21T02:45:37.699Z,0
2023-01-21T02:46:37.783Z,0
2023-01-21T02:47:37.518Z,0
2023-01-21T02:48:37.530Z,0
2023-01-21T02:49:37.262Z,0
2023-01-21T02:50:37.567Z,0
2023-01-21T02:51:37.540Z,0
2023-01-21T02:52:37.334Z,0
2023-01-21T02:53:37.783Z,0
2023-01-21T02:54:37.628Z,0
2023-01-21T02:55:37.609Z,0
2023-01-21T02:56:37.411Z,0
2023-01-21T02:57:37.698Z,0
2023-01-21T02:58:37.651Z,0
2023-01-21T02:59:37.428Z,0
2023-01-21T03:00:37.548Z,0
2023-01-21T03:01:37.576Z,0
2023-01-21T03:02:37.713Z,0
2023-01-21T03:03:39.277Z,0
2023-01-21T03:04:37.212Z,0
2023-01-21T03:05:37.754Z,0
2023-01-21T03:06:37.555Z,0
2023-01-21T03:07:37.850Z,0
2023-01-21T03:08:37.539Z,0
2023-01-21T03:09:37.541Z,0
2023-01-21T03:10:37.568Z,0
2023-01-21T03:11:37.807Z,0
2023-01-21T03:12:37.898Z,0
2023-01-21T03:13:37.857Z,0
2023-01-21T03:14:37.859Z,0
2023-01-21T03:15:37.637Z,0
2023-01-21T03:16:38.173Z,0
2023-01-21T03:17:37.682Z,0
2023-01-21T03:18:37.655Z,0
2023-01-21T03:19:37.720Z,0
2023-01-21T03:20:37.933Z,0
2023-01-21T03:21:38.036Z,0
2023-01-21T03:22:37.983Z,0
2023-01-21T03:23:37.729Z,0
2023-01-21T03:24:37.995Z,0
2023-01-21T03:25:37.773Z,0
2023-01-21T03:26:38.071Z,0
2023-01-21T03:27:38.037Z,0
2023-01-21T03:28:38.125Z,0
2023-01-21T03:29:37.824Z,0
2023-01-21T03:30:38.104Z,0
2023-01-21T03:31:38.161Z,0
2023-01-21T03:32:38.218Z,0
2023-01-21T03:33:38.181Z,0
2023-01-21T03:34:37.910Z,0
2023-01-21T03:35:37.880Z,0
2023-01-21T03:36:38.159Z,0
2023-01-21T03:37:38.187Z,0
2023-01-21T03:38:38.195Z,0
2023-01-21T03:39:37.978Z,0
2023-01-21T03:40:37.950Z,0
2023-01-21T03:41:37.972Z,0
2023-01-21T03:42:38.624Z,0
2023-01-21T03:43:38.251Z,0
2023-01-21T03:44:38.332Z,0
2023-01-21T03:45:37.978Z,0
2023-01-21T03:46:38.055Z,0
2023-01-21T03:47:38.339Z,0
2023-01-21T03:48:38.377Z,0
2023-01-21T03:49:37.964Z,0
2023-01-21T03:50:38.385Z,0
2023-01-21T03:51:38.371Z,0
2023-01-21T03:52:38.380Z,0
2023-01-21T03:53:38.434Z,0
2023-01-21T03:54:38.145Z,0
2023-01-21T03:55:38.454Z,0
2023-01-21T03:56:38.184Z,0
2023-01-21T03:57:38.456Z,0
2023-01-21T03:58:38.337Z,0
2023-01-21T03:59:38.315Z,0
2023-01-21T04:00:38.692Z,0
2023-01-21T04:01:38.255Z,0
2023-01-21T04:02:38.622Z,0
2023-01-21T04:03:38.007Z,0
2023-01-21T04:04:38.535Z,0
2023-01-21T04:05:38.361Z,0
2023-01-21T04:06:38.347Z,0
2023-01-21T04:07:38.215Z,0
2023-01-21T04:08:38.619Z,0
2023-01-21T04:09:38.354Z,0
2023-01-21T04:10:38.365Z,0
2023-01-21T04:11:38.542Z,0
2023-01-21T04:12:38.398Z,0
2023-01-21T04:13:38.676Z,0
2023-01-21T04:14:38.228Z,0
2023-01-21T04:15:38.449Z,0
2023-01-21T04:16:38.807Z,0
2023-01-21T04:17:38.710Z,0
2023-01-21T04:18:38.621Z,0
2023-01-21T04:19:38.323Z,0
2023-01-21T04:20:38.507Z,0
2023-01-21T04:21:38.810Z,0
2023-01-21T04:22:38.794Z,0
2023-01-21T04:23:38.567Z,0
2023-01-21T04:24:41.583Z,0
2023-01-21T04:25:38.830Z,0
2023-01-21T04:26:38.581Z,0
2023-01-21T04:27:38.853Z,0
2023-01-21T04:28:38.866Z,0
2023-01-21T04:29:38.634Z,0
2023-01-21T04:30:39.130Z,0
2023-01-21T04:31:38.951Z,0
2023-01-21T04:32:38.724Z,0
2023-01-21T04:33:38.958Z,0
2023-01-21T04:34:38.960Z,0
2023-01-21T04:35:38.987Z,0
2023-01-21T04:36:38.974Z,0
2023-01-21T04:37:39.028Z,0
2023-01-21T04:38:38.745Z,0
2023-01-21T04:39:38.767Z,0
2023-01-21T04:40:39.062Z,0
2023-01-21T04:41:39.056Z,0
2023-01-21T04:42:39.063Z,0
2023-01-21T04:43:38.822Z,0
2023-01-21T04:44:39.134Z,0
2023-01-21T04:45:39.007Z,0
2023-01-21T04:46:38.911Z,0
2023-01-21T04:47:39.123Z,0
2023-01-21T04:48:39.194Z,0
2023-01-21T04:49:38.904Z,0
2023-01-21T04:50:39.179Z,0
2023-01-21T04:51:39.208Z,0
2023-01-21T04:52:38.943Z,0
2023-01-21T04:53:39.595Z,0
2023-01-21T04:54:39.223Z,0
2023-01-21T04:55:38.987Z,0
2023-01-21T04:56:39.232Z,0
2023-01-21T04:57:39.012Z,0
2023-01-21T04:58:39.280Z,0
2023-01-21T04:59:39.019Z,0
2023-01-21T05:00:39.037Z,0
2023-01-21T05:01:38.831Z,0
2023-01-21T05:02:39.177Z,0
2023-01-21T05:03:39.367Z,0
2023-01-21T05:04:39.424Z,0
2023-01-21T05:05:39.392Z,0
2023-01-21T05:06:39.412Z,0
2023-01-21T05:07:39.489Z,0
2023-01-21T05:08:38.930Z,0
2023-01-21T05:09:39.463Z,0
2023-01-21T05:10:39.438Z,0
2023-01-21T05:11:39.456Z,0
2023-01-21T05:12:39.492Z,0
2023-01-21T05:13:39.506Z,0
2023-01-21T05:14:39.502Z,0
2023-01-21T05:15:39.695Z,0
2023-01-21T05:16:39.407Z,0
2023-01-21T05:17:39.005Z,0
2023-01-21T05:18:39.313Z,0
2023-01-21T05:19:39.560Z,0
2023-01-21T05:20:39.706Z,0
2023-01-21T05:21:39.323Z,0
2023-01-21T05:22:39.605Z,0
2023-01-21T05:23:39.344Z,0
2023-01-21T05:24:39.398Z,0
2023-01-21T05:25:39.413Z,0
2023-01-21T05:26:39.392Z,0
2023-01-21T05:27:39.671Z,0
2023-01-21T05:28:39.419Z,0
2023-01-21T05:29:39.694Z,0
2023-01-21T05:30:44.554Z,0
2023-01-21T05:31:40.294Z,0
2023-01-21T05:32:39.738Z,0
2023-01-21T05:33:39.510Z,0
2023-01-21T05:34:39.805Z,0
2023-01-21T05:35:39.350Z,0
2023-01-21T05:36:39.844Z,0
2023-01-21T05:37:39.803Z,0
2023-01-21T05:38:39.791Z,0
2023-01-21T05:39:39.563Z,0
2023-01-21T05:40:39.713Z,0
2023-01-21T05:41:39.608Z,0
2023-01-21T05:42:39.871Z,0
2023-01-21T05:43:40.085Z,0
2023-01-21T05:44:39.622Z,0
2023-01-21T05:45:40.016Z,0
2023-01-21T05:46:39.899Z,0
2023-01-21T05:47:39.681Z,0
2023-01-21T05:48:39.693Z,0
2023-01-21T05:49:39.696Z,0
2023-01-21T05:50:39.994Z,0
2023-01-21T05:51:39.735Z,0
2023-01-21T05:52:40.068Z,0
2023-01-21T05:53:40.548Z,0
2023-01-21T05:54:49.204Z,0
2023-01-21T05:55:39.777Z,0
2023-01-21T05:56:40.068Z,0
2023-01-21T05:57:40.118Z,0
2023-01-21T05:58:40.074Z,0
2023-01-21T05:59:39.821Z,0
2023-01-21T06:00:39.839Z,0
2023-01-21T06:01:39.841Z,0
2023-01-21T06:02:40.154Z,0
2023-01-21T06:03:40.107Z,0
2023-01-21T06:04:39.990Z,0
2023-01-21T06:05:40.162Z,0
2023-01-21T06:06:40.030Z,0
2023-01-21T06:07:40.196Z,0
2023-01-21T06:08:40.263Z,0
2023-01-21T06:09:40.216Z,0
2023-01-21T06:10:40.228Z,0
2023-01-21T06:11:40.277Z,0
2023-01-21T06:12:40.281Z,0
2023-01-21T06:13:40.304Z,0
2023-01-21T06:14:40.038Z,0
2023-01-21T06:15:40.479Z,0
2023-01-21T06:16:40.058Z,0
2023-01-21T06:17:40.332Z,0
2023-01-21T06:18:39.811Z,0
2023-01-21T06:19:40.390Z,0
2023-01-21T06:20:40.100Z,0
2023-01-21T06:21:40.414Z,0
2023-01-21T06:22:40.410Z,0
2023-01-21T06:23:40.399Z,0
2023-01-21T06:24:40.555Z,0
2023-01-21T06:25:40.457Z,0
2023-01-21T06:26:40.445Z,0
2023-01-21T06:27:40.461Z,0
2023-01-21T06:28:40.230Z,0
2023-01-21T06:29:40.265Z,0
2023-01-21T06:30:40.264Z,0
2023-01-21T06:31:40.835Z,0
2023-01-21T06:32:40.284Z,0
2023-01-21T06:33:40.323Z,0
2023-01-21T06:34:40.284Z,0
2023-01-21T06:35:40.315Z,0
2023-01-21T06:36:40.571Z,0
2023-01-21T06:37:40.073Z,0
2023-01-21T06:38:40.626Z,0
2023-01-21T06:39:40.361Z,0
2023-01-21T06:40:40.682Z,0
2023-01-21T06:41:40.442Z,0
2023-01-21T06:42:40.414Z,0
2023-01-21T06:43:40.697Z,0
2023-01-21T06:44:40.698Z,0
2023-01-21T06:45:40.461Z,0
2023-01-21T06:46:48.948Z,0
2023-01-21T06:47:40.747Z,0
2023-01-21T06:48:40.467Z,0
2023-01-21T06:49:40.503Z,0
2023-01-21T06:50:40.242Z,0
2023-01-21T06:51:40.803Z,0
2023-01-21T06:52:40.281Z,0
2023-01-21T06:53:41.094Z,0
2023-01-21T06:54:40.881Z,0
2023-01-21T06:55:40.838Z,0
2023-01-21T06:56:40.908Z,0
2023-01-21T06:57:40.589Z,0
2023-01-21T06:58:40.611Z,0
2023-01-21T06:59:40.883Z,0
2023-01-21T07:00:40.894Z,0
2023-01-21T07:01:41.165Z,0
2023-01-21T07:02:40.938Z,0
2023-01-21T07:03:40.753Z,0
2023-01-21T07:04:41.084Z,0
2023-01-21T07:05:40.947Z,0
2023-01-21T07:06:40.986Z,0
2023-01-21T07:07:40.469Z,0
2023-01-21T07:08:41.011Z,0
2023-01-21T07:09:40.503Z,0
2023-01-21T07:10:40.547Z,0
2023-01-21T07:11:41.115Z,0
2023-01-21T07:12:41.109Z,0
2023-01-21T07:13:40.823Z,0
2023-01-21T07:14:40.841Z,0
2023-01-21T07:15:40.660Z,0
2023-01-21T07:16:40.601Z,0
2023-01-21T07:17:41.137Z,0
2023-01-21T07:18:41.147Z,0
2023-01-21T07:19:41.157Z,0
2023-01-21T07:20:43.001Z,0
2023-01-21T07:21:41.169Z,0
2023-01-21T07:22:41.090Z,0
2023-01-21T07:23:41.229Z,0
2023-01-21T07:24:41.225Z,0
2023-01-21T07:25:40.755Z,0
2023-01-21T07:26:41.293Z,0
2023-01-21T07:27:40.978Z,0
2023-01-21T07:28:41.311Z,0
2023-01-21T07:29:41.275Z,0
2023-01-21T07:30:41.085Z,0
2023-01-21T07:31:42.001Z,0
2023-01-21T07:32:41.337Z,0
2023-01-21T07:33:41.368Z,0
2023-01-21T07:34:41.360Z,4
2023-01-21T07:35:40.855Z,4
2023-01-21T07:36:41.134Z,4
2023-01-21T07:37:41.497Z,4
2023-01-21T07:38:41.404Z,4
2023-01-21T07:39:41.418Z,4
2023-01-21T07:40:41.175Z,4
2023-01-21T07:41:41.185Z,4
2023-01-21T07:42:41.484Z,4
2023-01-21T07:43:41.197Z,4
2023-01-21T07:44:41.541Z,4
2023-01-21T07:45:41.223Z,4
2023-01-21T07:46:41.712Z,4
2023-01-21T07:47:41.543Z,4
2023-01-21T07:48:41.533Z,4
2023-01-21T07:49:41.310Z,4
2023-01-21T07:50:41.578Z,0
2023-01-21T07:51:41.603Z,0
2023-01-21T07:52:41.589Z,0
2023-01-21T07:53:41.634Z,4
2023-01-21T07:54:41.604Z,4
2023-01-21T07:55:41.102Z,4
2023-01-21T07:56:41.647Z,4
2023-01-21T07:57:41.372Z,4
2023-01-21T07:58:41.721Z,4
2023-01-21T07:59:41.420Z,4
2023-01-21T08:00:41.742Z,4
2023-01-21T08:01:41.705Z,4
2023-01-21T08:02:42.152Z,4
2023-01-21T08:03:41.728Z,4
2023-01-21T08:04:41.732Z,4
2023-01-21T08:05:41.846Z,4
2023-01-21T08:06:41.603Z,8
2023-01-21T08:07:41.507Z,4
2023-01-21T08:08:41.804Z,4
2023-01-21T08:09:41.542Z,4
2023-01-21T08:10:41.826Z,4
2023-01-21T08:11:41.589Z,4
2023-01-21T08:12:41.579Z,4
2023-01-21T08:13:41.872Z,4
2023-01-21T08:14:41.633Z,4
2023-01-21T08:15:41.873Z,8
2023-01-21T08:16:42.211Z,8
2023-01-21T08:17:41.401Z,4
2023-01-21T08:18:41.904Z,4
2023-01-21T08:19:41.959Z,8
2023-01-21T08:20:41.695Z,4
2023-01-21T08:21:42.157Z,8
2023-01-21T08:22:41.977Z,8
2023-01-21T08:23:42.007Z,12
2023-01-21T08:24:41.985Z,12
2023-01-21T08:25:42.029Z,12
2023-01-21T08:26:41.788Z,8
2023-01-21T08:27:41.785Z,8
2023-01-21T08:28:41.588Z,8
2023-01-21T08:29:42.079Z,12
2023-01-21T08:30:42.276Z,12
2023-01-21T08:31:42.041Z,12
2023-01-21T08:32:42.177Z,12
2023-01-21T08:33:42.113Z,12
2023-01-21T08:34:41.898Z,16
2023-01-21T08:35:42.140Z,12
2023-01-21T08:36:42.190Z,16
2023-01-21T08:37:41.957Z,16
2023-01-21T08:38:42.205Z,20
2023-01-21T08:39:41.942Z,16
2023-01-21T08:40:41.695Z,20
2023-01-21T08:41:41.733Z,16
2023-01-21T08:42:41.996Z,16
2023-01-21T08:43:41.976Z,20
2023-01-21T08:44:42.250Z,20
2023-01-21T08:45:42.499Z,20
2023-01-21T08:46:42.321Z,20
2023-01-21T08:47:42.296Z,20
2023-01-21T08:48:42.096Z,20
2023-01-21T08:49:42.917Z,20
2023-01-21T08:50:42.352Z,20
2023-01-21T08:51:42.096Z,20
2023-01-21T08:52:42.383Z,20
2023-01-21T08:53:42.466Z,24
2023-01-21T08:54:42.386Z,20
2023-01-21T08:55:42.395Z,20
2023-01-21T08:56:42.407Z,20
2023-01-21T08:57:42.204Z,20
2023-01-21T08:58:42.231Z,20
2023-01-21T08:59:42.187Z,20
2023-01-21T09:00:42.300Z,20
2023-01-21T09:01:42.499Z,20
2023-01-21T09:02:42.504Z,20
2023-01-21T09:03:42.256Z,20
2023-01-21T09:04:42.569Z,20
2023-01-21T09:05:42.551Z,24
2023-01-21T09:06:42.068Z,20
2023-01-21T09:07:42.554Z,20
2023-01-21T09:08:42.566Z,20
2023-01-21T09:09:42.631Z,20
2023-01-21T09:10:42.463Z,20
2023-01-21T09:11:42.339Z,20
2023-01-21T09:12:42.384Z,20
2023-01-21T09:13:42.647Z,20
2023-01-21T09:14:42.646Z,20
2023-01-21T09:15:42.137Z,24
2023-01-21T09:16:42.909Z,24
2023-01-21T09:17:42.707Z,24
2023-01-21T09:18:42.760Z,20
2023-01-21T09:19:42.734Z,24
2023-01-21T09:20:42.862Z,24
2023-01-21T09:21:42.524Z,20
2023-01-21T09:22:42.483Z,24
2023-01-21T09:23:42.765Z,20
2023-01-21T09:24:42.831Z,20
2023-01-21T09:25:42.810Z,20
2023-01-21T09:26:42.856Z,24
2023-01-21T09:27:42.300Z,24
2023-01-21T09:28:42.347Z,24
2023-01-21T09:29:42.846Z,24
2023-01-21T09:30:43.063Z,24
2023-01-21T09:31:43.062Z,24
2023-01-21T09:32:42.943Z,24
2023-01-21T09:33:42.925Z,24
2023-01-21T09:34:43.308Z,24
2023-01-21T09:35:42.670Z,24
2023-01-21T09:36:43.003Z,24
2023-01-21T09:37:42.687Z,24
2023-01-21T09:38:42.700Z,24
2023-01-21T09:39:42.729Z,28
2023-01-21T09:40:42.990Z,28
2023-01-21T09:41:43.149Z,24
2023-01-21T09:42:42.871Z,28
2023-01-21T09:43:42.761Z,24
2023-01-21T09:44:42.778Z,24
2023-01-21T09:45:42.914Z,24
2023-01-21T09:46:43.093Z,24
2023-01-21T09:47:43.116Z,24
2023-01-21T09:48:43.116Z,28
2023-01-21T09:49:43.103Z,24
2023-01-21T09:50:43.138Z,24
2023-01-21T09:51:42.849Z,24
2023-01-21T09:52:43.229Z,24
2023-01-21T09:53:43.173Z,24
2023-01-21T09:54:43.096Z,24
2023-01-21T09:55:43.194Z,24
2023-01-21T09:56:42.929Z,24
2023-01-21T09:57:42.965Z,28
2023-01-21T09:58:42.979Z,28
2023-01-21T09:59:42.986Z,28
2023-01-21T10:00:42.967Z,28
2023-01-21T10:01:43.421Z,28
2023-01-21T10:02:43.257Z,32
2023-01-21T10:03:42.835Z,32
2023-01-21T10:04:43.318Z,32
2023-01-21T10:05:43.309Z,32
2023-01-21T10:06:43.344Z,32
2023-01-21T10:07:43.325Z,32
2023-01-21T10:08:43.409Z,32
2023-01-21T10:09:43.124Z,28
2023-01-21T10:10:43.129Z,32
2023-01-21T10:11:45.304Z,28
2023-01-21T10:12:43.388Z,28
2023-01-21T10:13:43.180Z,28
2023-01-21T10:14:43.411Z,32
2023-01-21T10:15:43.437Z,32
2023-01-21T10:16:43.787Z,36
2023-01-21T10:17:43.453Z,40
2023-01-21T10:18:43.210Z,40
2023-01-21T10:19:43.520Z,44
2023-01-21T10:20:43.257Z,44
2023-01-21T10:21:43.272Z,44
2023-01-21T10:22:43.489Z,44
2023-01-21T10:23:45.036Z,44
2023-01-21T10:24:43.635Z,48
2023-01-21T10:25:43.572Z,44
2023-01-21T10:26:43.578Z,44
2023-01-21T10:27:43.339Z,48
2023-01-21T10:28:43.813Z,48
2023-01-21T10:29:43.391Z,44
2023-01-21T10:30:43.876Z,44
2023-01-21T10:31:44.323Z,40
2023-01-21T10:32:43.405Z,40
2023-01-21T10:33:43.669Z,40
2023-01-21T10:34:43.685Z,40
2023-01-21T10:35:43.679Z,40
2023-01-21T10:36:43.457Z,40
2023-01-21T10:37:43.492Z,36
2023-01-21T10:38:43.829Z,36
2023-01-21T10:39:43.513Z,32
2023-01-21T10:40:43.593Z,32
2023-01-21T10:41:43.526Z,32
2023-01-21T10:42:43.807Z,32
2023-01-21T10:43:43.553Z,28
2023-01-21T10:44:43.824Z,28
2023-01-21T10:45:43.936Z,28
2023-01-21T10:46:43.568Z,24
2023-01-21T10:47:43.855Z,28
2023-01-21T10:48:43.869Z,28
2023-01-21T10:49:43.640Z,28
2023-01-21T10:50:43.374Z,28
2023-01-21T10:51:43.929Z,24
2023-01-21T10:52:43.929Z,24
2023-01-21T10:53:44.004Z,28
2023-01-21T10:54:43.967Z,28
2023-01-21T10:55:43.713Z,28
2023-01-21T10:56:44.021Z,28
2023-01-21T10:57:43.727Z,28
2023-01-21T10:58:43.733Z,28
2023-01-21T10:59:43.611Z,28
2023-01-21T11:00:44.050Z,28
2023-01-21T11:01:44.285Z,28
2023-01-21T11:02:44.288Z,24
2023-01-21T11:03:44.124Z,28
2023-01-21T11:04:43.850Z,32
2023-01-21T11:05:44.104Z,32
2023-01-21T11:06:44.209Z,36
2023-01-21T11:07:43.592Z,32
2023-01-21T11:08:44.047Z,32
2023-01-21T11:09:43.895Z,28
2023-01-21T11:10:44.180Z,28
2023-01-21T11:11:43.912Z,32
2023-01-21T11:12:44.230Z,36
2023-01-21T11:13:43.688Z,32
2023-01-21T11:14:45.048Z,36
2023-01-21T11:15:44.368Z,36
2023-01-21T11:16:44.298Z,36
2023-01-21T11:17:44.283Z,40
2023-01-21T11:18:44.293Z,40
2023-01-21T11:19:44.304Z,40
2023-01-21T11:20:44.378Z,36
2023-01-21T11:21:44.326Z,36
2023-01-21T11:22:44.052Z,32
2023-01-21T11:23:44.106Z,36
2023-01-21T11:24:44.080Z,36
2023-01-21T11:25:44.171Z,36
2023-01-21T11:26:43.888Z,36
2023-01-21T11:27:44.378Z,44
2023-01-21T11:28:44.813Z,48
2023-01-21T11:29:44.421Z,52
2023-01-21T11:31:01.420Z,52
2023-01-21T11:31:45.068Z,56
2023-01-21T11:32:44.182Z,56
2023-01-21T11:33:44.503Z,60
2023-01-21T11:34:44.461Z,60
2023-01-21T11:35:44.534Z,64
2023-01-21T11:36:44.499Z,60
2023-01-21T11:37:44.508Z,60
2023-01-21T11:38:44.562Z,56
2023-01-21T11:39:44.274Z,56
2023-01-21T11:40:44.306Z,60
2023-01-21T11:41:44.585Z,60
2023-01-21T11:42:44.604Z,60
2023-01-21T11:43:44.673Z,60
2023-01-21T11:44:44.691Z,60
2023-01-21T11:45:44.372Z,60
2023-01-21T11:46:44.396Z,64
2023-01-21T11:47:44.742Z,68
2023-01-21T11:48:44.638Z,72
2023-01-21T11:49:44.174Z,72
2023-01-21T11:50:44.456Z,76
2023-01-21T11:51:44.716Z,76
2023-01-21T11:52:44.205Z,76
2023-01-21T11:53:44.462Z,80
2023-01-21T11:54:44.737Z,80
2023-01-21T11:55:44.534Z,80
2023-01-21T11:56:44.781Z,80
2023-01-21T11:57:44.556Z,76
2023-01-21T11:58:44.805Z,80
2023-01-21T11:59:44.813Z,84
2023-01-21T12:00:44.743Z,80
2023-01-21T12:01:44.839Z,84
2023-01-21T12:02:44.936Z,88
2023-01-21T12:03:45.077Z,88
2023-01-21T12:04:44.914Z,88
2023-01-21T12:05:44.919Z,84
2023-01-21T12:06:44.879Z,84
2023-01-21T12:07:44.912Z,84
2023-01-21T12:08:45.171Z,84
2023-01-21T12:09:44.668Z,84
2023-01-21T12:10:44.695Z,88
2023-01-21T12:11:44.438Z,92
2023-01-21T12:12:44.959Z,96
2023-01-21T12:13:44.999Z,96
2023-01-21T12:14:45.039Z,96
2023-01-21T12:15:45.066Z,96
2023-01-21T12:16:45.092Z,96
2023-01-21T12:17:47.343Z,92
2023-01-21T12:18:44.778Z,92
2023-01-21T12:19:45.077Z,92
2023-01-21T12:20:45.091Z,96
2023-01-21T12:21:44.871Z,88
2023-01-21T12:22:44.833Z,88
2023-01-21T12:23:45.108Z,84
2023-01-21T12:24:45.134Z,84
2023-01-21T12:25:45.142Z,80
2023-01-21T12:26:45.157Z,80
2023-01-21T12:27:45.166Z,80
2023-01-21T12:28:45.403Z,80
2023-01-21T12:29:44.681Z,80
2023-01-21T12:30:45.451Z,80
2023-01-21T12:31:44.708Z,84
2023-01-21T12:32:45.341Z,80
2023-01-21T12:33:44.717Z,84
2023-01-21T12:34:45.014Z,84
2023-01-21T12:35:45.292Z,84
2023-01-21T12:36:45.300Z,80
2023-01-21T12:37:45.321Z,84
2023-01-21T12:38:45.052Z,80
2023-01-21T12:39:45.057Z,80
2023-01-21T12:40:45.083Z,80
2023-01-21T12:41:44.826Z,80
2023-01-21T12:42:45.147Z,76
2023-01-21T12:43:48.111Z,80
2023-01-21T12:44:45.140Z,76
2023-01-21T12:45:45.135Z,76
2023-01-21T12:46:46.061Z,72
2023-01-21T12:47:45.164Z,76
2023-01-21T12:48:45.510Z,76
2023-01-21T12:49:45.196Z,76
2023-01-21T12:50:45.522Z,72
2023-01-21T12:51:45.489Z,76
2023-01-21T12:52:45.499Z,72
2023-01-21T12:53:45.569Z,72
2023-01-21T12:54:45.524Z,68
2023-01-21T12:55:45.526Z,72
2023-01-21T12:56:45.578Z,68
2023-01-21T12:57:45.589Z,68
2023-01-21T12:58:45.328Z,68
2023-01-21T12:59:45.562Z,64
2023-01-21T13:00:45.778Z,60
2023-01-21T13:01:45.919Z,64
2023-01-21T13:02:45.437Z,60
2023-01-21T13:03:45.368Z,60
2023-01-21T13:04:45.740Z,60
2023-01-21T13:05:45.694Z,60
2023-01-21T13:07:00.712Z,60
2023-01-21T13:07:45.433Z,60
2023-01-21T13:08:45.441Z,56
2023-01-21T13:09:45.509Z,60
2023-01-21T13:10:45.467Z,60
2023-01-21T13:11:45.242Z,60
2023-01-21T13:12:45.488Z,60
2023-01-21T13:13:45.525Z,60
2023-01-21T13:14:48.159Z,60
2023-01-21T13:15:45.537Z,60
2023-01-21T13:16:46.123Z,60
2023-01-21T13:17:45.860Z,60
2023-01-21T13:18:45.623Z,60
2023-01-21T13:19:45.895Z,60
2023-01-21T13:20:45.951Z,60
2023-01-21T13:21:45.616Z,60
2023-01-21T13:22:45.904Z,60
2023-01-21T13:23:45.650Z,60
2023-01-21T13:24:45.687Z,60
2023-01-21T13:25:45.978Z,60
2023-01-21T13:26:45.849Z,68
2023-01-21T13:27:48.961Z,64
2023-01-21T13:28:45.866Z,64
2023-01-21T13:29:45.724Z,64
2023-01-21T13:30:46.045Z,60
2023-01-21T13:31:46.416Z,64
2023-01-21T13:32:46.006Z,60
2023-01-21T13:33:46.037Z,60
2023-01-21T13:34:46.784Z,56
2023-01-21T13:35:46.092Z,60
2023-01-21T13:36:46.124Z,56
2023-01-21T13:37:45.835Z,52
2023-01-21T13:38:45.841Z,52
2023-01-21T13:39:46.260Z,52
2023-01-21T13:40:46.678Z,48
2023-01-21T13:41:45.647Z,48
2023-01-21T13:42:46.218Z,48
2023-01-21T13:43:45.643Z,48
2023-01-21T13:44:46.163Z,52
2023-01-21T13:45:46.079Z,56
2023-01-21T13:46:46.795Z,56
2023-01-21T13:47:45.965Z,56
2023-01-21T13:48:46.217Z,56
2023-01-21T13:49:45.998Z,52
2023-01-21T13:50:46.033Z,52
2023-01-21T13:51:46.330Z,52
2023-01-21T13:52:46.947Z,52
2023-01-21T13:53:46.289Z,48
2023-01-21T13:54:46.294Z,48
2023-01-21T13:55:46.314Z,44
2023-01-21T13:56:46.347Z,44
2023-01-21T13:57:46.379Z,44
2023-01-21T13:58:46.365Z,44
2023-01-21T13:59:46.408Z,44
2023-01-21T14:00:46.612Z,40
2023-01-21T14:01:46.637Z,40
2023-01-21T14:02:46.419Z,40
2023-01-21T14:03:46.182Z,36
2023-01-21T14:04:46.464Z,36
2023-01-21T14:05:45.950Z,36
2023-01-21T14:06:46.484Z,32
2023-01-21T14:07:46.468Z,32
2023-01-21T14:08:46.613Z,32
2023-01-21T14:09:46.545Z,32
2023-01-21T14:10:46.533Z,32
2023-01-21T14:11:46.512Z,36
2023-01-21T14:12:46.531Z,36
2023-01-21T14:13:46.694Z,40
2023-01-21T14:14:46.051Z,40
2023-01-21T14:15:46.428Z,40
2023-01-21T14:16:46.642Z,40
2023-01-21T14:17:46.610Z,40
2023-01-21T14:18:46.379Z,40
2023-01-21T14:19:46.356Z,40
2023-01-21T14:20:46.716Z,36
2023-01-21T14:21:46.814Z,36
2023-01-21T14:22:46.707Z,36
2023-01-21T14:23:46.721Z,32
2023-01-21T14:24:46.504Z,32
2023-01-21T14:25:46.698Z,32
2023-01-21T14:26:46.808Z,32
2023-01-21T14:27:46.233Z,28
2023-01-21T14:28:47.166Z,32
2023-01-21T14:29:46.847Z,28
2023-01-21T14:30:46.868Z,28
2023-01-21T14:31:47.153Z,24
2023-01-21T14:32:46.792Z,24
2023-01-21T14:33:46.952Z,24